Time;durP1;ratioP1;P1;durP2;ratioP2;P2;SDS_P1;SDS_P2;PMS_P1;PMS_P2;Temp;Humidity;BMP_temperature;BMP_pressure;BME280_temperature;BME280_humidity;BME280_pressure;Samples;Min_cycle;Max_cycle;Signal;HPM_P1;HPM_P2
2022/05/21 00:00:42;;;;;;;13.17;3.93;;;15.60;83.10;;;;;;5048928;28;20210;-88
2022/05/21 00:03:11;;;;;;;16.63;5.10;;;15.60;83.10;;;;;;5055804;28;20719;-88
2022/05/21 00:05:41;;;;;;;12.47;4.70;;;15.60;83.10;;;;;;5056535;28;20347;-88
2022/05/21 00:08:09;;;;;;;11.93;4.47;;;15.60;83.20;;;;;;5057500;28;20228;-88
2022/05/21 00:10:38;;;;;;;15.67;4.63;;;15.50;82.90;;;;;;5056924;28;20208;-89
2022/05/21 00:13:08;;;;;;;14.73;4.57;;;15.60;83.10;;;;;;5057122;28;20208;-88
2022/05/21 00:15:37;;;;;;;13.10;3.67;;;15.60;84.00;;;;;;5056028;28;20227;-89
2022/05/21 00:18:05;;;;;;;12.70;4.47;;;15.60;83.60;;;;;;5055248;28;20656;-88
2022/05/21 00:20:50;;;;;;;13.30;4.10;;;15.60;83.30;;;;;;5056125;28;20200;-88
2022/05/21 00:23:23;;;;;;;17.63;6.20;;;15.60;83.10;;;;;;5053125;28;20292;-87
2022/05/21 00:25:56;;;;;;;17.37;5.20;;;15.60;83.30;;;;;;5051312;28;20909;-88
2022/05/21 00:28:23;;;;;;;14.40;4.60;;;15.60;83.50;;;;;;5053635;28;20189;-88
2022/05/21 00:30:55;;;;;;;13.03;4.10;;;15.60;83.30;;;;;;5054748;28;20279;-88
2022/05/21 00:33:27;;;;;;;11.60;4.90;;;15.60;83.70;;;;;;5055408;28;20274;-87
2022/05/21 00:35:54;;;;;;;11.03;4.40;;;15.60;83.30;;;;;;5057781;28;20208;-88
2022/05/21 00:38:22;;;;;;;16.13;4.50;;;15.50;83.40;;;;;;5055976;28;20223;-88
2022/05/21 00:40:51;;;;;;;15.77;5.43;;;15.50;83.70;;;;;;5056123;28;20652;-88
2022/05/21 00:43:39;;;;;;;16.63;5.10;;;15.60;84.10;;;;;;5054984;28;20277;-88
2022/05/21 00:46:10;;;;;;;11.43;4.47;;;15.60;84.60;;;;;;5038537;28;20258;-89
2022/05/21 00:48:38;;;;;;;17.33;4.80;;;15.50;84.10;;;;;;5058642;28;20198;-88
2022/05/21 00:51:09;;;;;;;16.10;4.40;;;15.50;83.70;;;;;;5059281;28;20203;-88
2022/05/21 00:53:37;;;;;;;15.87;4.97;;;15.50;84.20;;;;;;5053148;28;20215;-89
2022/05/21 00:56:07;;;;;;;10.33;2.90;;;15.50;83.80;;;;;;5054971;28;20212;-87
2022/05/21 01:01:24;;;;;;;11.67;4.10;;;15.50;83.90;;;;;;5052444;28;20214;-86
2022/05/21 01:03:52;;;;;;;12.37;3.40;;;15.60;84.40;;;;;;5042377;28;20636;-87
2022/05/21 01:06:20;;;;;;;11.57;3.53;;;15.60;84.20;;;;;;5052188;28;20238;-87
2022/05/21 01:08:47;;;;;;;13.33;4.70;;;15.50;84.10;;;;;;5053192;28;20208;-88
2022/05/21 01:11:17;;;;;;;13.17;4.20;;;15.50;84.00;;;;;;5053871;28;20204;-86
2022/05/21 01:13:47;;;;;;;18.63;6.20;;;15.50;84.30;;;;;;5050617;28;20991;-87
2022/05/21 01:16:15;;;;;;;12.83;5.10;;;15.60;84.30;;;;;;5034488;28;20212;-88
2022/05/21 01:18:44;;;;;;;13.73;3.43;;;15.50;84.40;;;;;;5053576;28;20240;-87
2022/05/21 01:21:12;;;;;;;16.47;5.40;;;15.50;84.50;;;;;;5048159;28;20219;-89
2022/05/21 01:23:42;;;;;;;18.57;4.93;;;15.50;84.40;;;;;;5053005;28;20204;-88
2022/05/21 01:26:14;;;;;;;15.60;5.03;;;15.50;84.50;;;;;;5053591;28;20285;-87
2022/05/21 01:28:44;;;;;;;11.40;3.20;;;15.60;85.10;;;;;;5053565;28;20667;-87
2022/05/21 01:31:12;;;;;;;17.77;5.03;;;15.50;84.70;;;;;;5052936;28;20614;-87
2022/05/21 01:33:44;;;;;;;14.73;5.17;;;15.60;85.70;;;;;;5052469;28;20255;-87
2022/05/21 01:36:13;;;;;;;14.90;4.70;;;15.50;85.70;;;;;;5055647;28;20617;-87
2022/05/21 01:38:43;;;;;;;16.67;4.70;;;15.50;85.60;;;;;;5054974;28;20231;-87
2022/05/21 01:41:12;;;;;;;13.23;4.40;;;15.50;85.70;;;;;;5051799;28;20616;-88
2022/05/21 01:46:24;;;;;;;17.30;4.77;;;15.50;86.80;;;;;;5055341;28;20294;-87
2022/05/21 01:48:51;;;;;;;18.67;6.23;;;15.50;86.30;;;;;;5054041;28;20233;-86
2022/05/21 01:51:19;;;;;;;15.13;4.63;;;15.50;86.70;;;;;;5053159;28;20266;-87
2022/05/21 01:53:49;;;;;;;19.47;5.50;;;15.50;87.10;;;;;;5051784;28;20306;-88
2022/05/21 01:56:16;;;;;;;11.80;4.37;;;15.50;87.30;;;;;;5052234;28;20207;-86
2022/05/21 01:58:44;;;;;;;13.20;5.83;;;15.50;86.80;;;;;;5051233;28;20292;-86
2022/05/21 02:01:15;;;;;;;17.73;5.30;;;15.50;87.40;;;;;;5058907;28;20211;-88
2022/05/21 02:03:44;;;;;;;19.13;6.77;;;15.50;87.30;;;;;;5055649;28;20564;-88
2022/05/21 02:06:12;;;;;;;18.63;6.37;;;15.50;87.20;;;;;;5055783;28;20238;-87
2022/05/21 02:08:39;;;;;;;20.50;6.47;;;15.60;87.30;;;;;;5052553;28;20203;-88
2022/05/21 02:11:12;;;;;;;26.50;6.60;;;15.60;87.70;;;;;;5039286;28;20208;-89
2022/05/21 02:13:40;;;;;;;16.93;5.33;;;15.60;88.60;;;;;;5051944;28;20457;-89
2022/05/21 02:16:07;;;;;;;17.60;5.23;;;15.60;87.90;;;;;;5052490;28;20708;-88
2022/05/21 02:18:34;;;;;;;14.67;5.10;;;15.60;88.10;;;;;;5056599;28;20204;-88
2022/05/21 02:21:03;;;;;;;12.87;4.77;;;15.60;88.40;;;;;;5054796;28;20299;-88
2022/05/21 02:23:30;;;;;;;27.30;6.80;;;15.60;88.40;;;;;;5056335;28;20208;-87
2022/05/21 02:26:00;;;;;;;21.43;6.10;;;15.60;88.40;;;;;;5055843;28;20248;-88
2022/05/21 02:28:31;;;;;;;14.60;5.70;;;15.60;88.80;;;;;;5055644;28;20210;-88
2022/05/21 02:30:59;;;;;;;19.33;5.83;;;15.60;89.20;;;;;;5056954;28;20248;-91
2022/05/21 02:33:27;;;;;;;17.00;5.97;;;15.60;89.30;;;;;;5056146;28;20235;-88
2022/05/21 02:35:54;;;;;;;21.30;5.93;;;15.60;89.00;;;;;;5052618;28;20209;-87
2022/05/21 02:41:10;;;;;;;10.70;5.00;;;15.60;89.40;;;;;;5055535;28;20211;-89
2022/05/21 02:43:39;;;;;;;14.30;5.67;;;15.60;90.00;;;;;;5054585;28;20201;-87
2022/05/21 02:46:09;;;;;;;15.93;5.73;;;15.60;89.70;;;;;;5054826;28;20221;-90
2022/05/21 02:48:37;;;;;;;15.27;5.43;;;15.60;89.70;;;;;;5053479;28;20199;-88
2022/05/21 02:51:04;;;;;;;19.70;5.83;;;15.60;89.70;;;;;;5053325;28;20743;-88
2022/05/21 02:53:32;;;;;;;25.10;7.53;;;15.60;90.00;;;;;;5053348;28;20911;-86
2022/05/21 02:56:05;;;;;;;19.90;5.47;;;15.60;89.80;;;;;;5053107;28;20211;-87
2022/05/21 02:58:33;;;;;;;21.57;7.17;;;15.60;90.20;;;;;;5051262;28;20214;-87
2022/05/21 03:01:04;;;;;;;17.20;5.87;;;15.60;90.00;;;;;;5052490;28;20275;-87
2022/05/21 03:03:31;;;;;;;24.80;8.70;;;15.60;90.00;;;;;;5052076;28;20610;-87
2022/05/21 03:05:59;;;;;;;23.03;6.40;;;15.60;89.80;;;;;;5039347;28;20223;-88
2022/05/21 03:11:10;;;;;;;23.80;6.97;;;15.60;89.80;;;;;;5040350;28;20209;-87
2022/05/21 03:13:39;;;;;;;23.60;7.17;;;15.60;89.80;;;;;;5042956;28;20244;-88
2022/05/21 03:16:08;;;;;;;25.07;6.63;;;15.60;90.00;;;;;;5034475;28;20231;-87
2022/05/21 03:18:36;;;;;;;24.90;6.83;;;15.60;90.00;;;;;;5043304;28;20222;-88
2022/05/21 03:21:04;;;;;;;26.60;6.77;;;15.70;90.40;;;;;;5050881;28;20208;-88
2022/05/21 03:23:32;;;;;;;20.43;6.70;;;15.60;90.00;;;;;;5051504;28;20208;-88
2022/05/21 03:25:59;;;;;;;18.67;6.97;;;15.60;89.90;;;;;;5054808;28;20719;-87
2022/05/21 03:28:26;;;;;;;28.73;7.70;;;15.60;90.00;;;;;;5038301;28;20199;-87
2022/05/21 03:30:53;;;;;;;16.27;6.37;;;15.60;90.00;;;;;;5056465;28;20209;-87
2022/05/21 03:33:32;;;;;;;16.37;6.07;;;15.70;90.10;;;;;;5060774;28;20235;-87
2022/05/21 03:36:08;;;;;;;13.97;5.57;;;15.60;90.30;;;;;;5055466;28;20207;-86
2022/05/21 03:38:38;;;;;;;24.60;8.03;;;15.60;90.50;;;;;;5053461;28;20199;-88
2022/05/21 03:41:05;;;;;;;22.80;6.90;;;15.60;90.30;;;;;;5053315;28;20619;-87
2022/05/21 03:43:32;;;;;;;16.97;7.20;;;15.60;90.40;;;;;;5059773;28;20263;-88
2022/05/21 03:46:00;;;;;;;18.07;6.23;;;15.60;90.40;;;;;;5055992;28;20635;-88
2022/05/21 03:48:35;;;;;;;22.57;6.67;;;15.60;90.60;;;;;;5059975;28;20184;-88
2022/05/21 03:51:08;;;;;;;24.67;7.50;;;15.60;91.00;;;;;;5047508;28;20239;-87
2022/05/21 03:53:35;;;;;;;27.40;7.57;;;15.60;90.90;;;;;;5066859;28;20644;-87
2022/05/21 03:56:04;;;;;;;16.27;7.37;;;15.60;90.90;;;;;;5054673;28;20212;-86
2022/05/21 03:58:32;;;;;;;22.13;7.77;;;15.60;90.90;;;;;;5055374;28;20262;-88
2022/05/21 04:01:00;;;;;;;22.27;8.77;;;15.70;90.90;;;;;;5053924;28;20298;-87
2022/05/21 04:03:27;;;;;;;19.73;8.50;;;15.60;90.90;;;;;;5048072;28;20208;-87
2022/05/21 04:05:56;;;;;;;18.60;8.63;;;15.70;90.80;;;;;;5045850;28;20302;-86
2022/05/21 04:08:24;;;;;;;24.07;9.07;;;15.70;90.90;;;;;;5040807;28;20255;-88
2022/05/21 04:10:52;;;;;;;27.93;9.33;;;15.70;90.90;;;;;;5042558;28;20213;-87
2022/05/21 04:13:20;;;;;;;20.63;8.23;;;15.70;90.90;;;;;;5048525;28;20283;-88
2022/05/21 04:15:49;;;;;;;20.77;7.90;;;15.70;91.10;;;;;;5048042;28;20201;-88
2022/05/21 04:18:18;;;;;;;16.80;6.67;;;15.70;91.00;;;;;;5046515;28;20188;-87
2022/05/21 04:20:46;;;;;;;17.13;6.87;;;15.70;91.20;;;;;;5046235;28;20202;-88
2022/05/21 04:23:20;;;;;;;14.93;6.87;;;15.70;91.10;;;;;;5044505;28;20284;-87
2022/05/21 04:25:48;;;;;;;22.27;6.57;;;15.70;91.40;;;;;;5045059;28;20316;-88
2022/05/21 04:28:15;;;;;;;19.17;6.63;;;15.70;91.10;;;;;;5046677;28;20287;-88
2022/05/21 04:30:42;;;;;;;22.40;6.53;;;15.70;91.00;;;;;;5045443;28;20398;-87
2022/05/21 04:33:09;;;;;;;20.23;6.97;;;15.70;91.00;;;;;;5047416;28;20255;-87
2022/05/21 04:38:25;;;;;;;18.43;6.43;;;15.70;91.20;;;;;;5051364;28;20255;-87
2022/05/21 04:40:52;;;;;;;19.00;5.47;;;15.70;91.60;;;;;;5051275;28;20875;-88
2022/05/21 04:43:19;;;;;;;15.90;5.77;;;15.70;91.00;;;;;;5051642;28;20211;-88
2022/05/21 04:45:49;;;;;;;17.67;6.17;;;15.70;90.90;;;;;;5049032;28;20651;-88
2022/05/21 04:48:16;;;;;;;16.20;5.43;;;15.70;91.10;;;;;;5048721;28;20224;-89
2022/05/21 04:50:44;;;;;;;19.67;6.07;;;15.70;90.90;;;;;;5047817;28;20675;-89
2022/05/21 04:53:11;;;;;;;17.23;5.70;;;15.70;90.90;;;;;;5048304;28;21013;-87
2022/05/21 04:55:40;;;;;;;20.83;5.40;;;15.70;90.90;;;;;;5046005;28;20206;-88
2022/05/21 04:58:07;;;;;;;17.13;6.63;;;15.70;91.00;;;;;;5043137;28;20290;-87
2022/05/21 05:00:36;;;;;;;19.53;6.33;;;15.70;90.90;;;;;;5041702;28;20566;-88
2022/05/21 05:03:03;;;;;;;19.10;5.43;;;15.70;91.10;;;;;;5041425;28;20572;-87
2022/05/21 05:05:31;;;;;;;17.73;6.20;;;15.70;90.90;;;;;;5041459;28;20202;-88
2022/05/21 05:07:58;;;;;;;17.73;5.20;;;15.70;91.00;;;;;;5042577;28;21005;-88
2022/05/21 05:10:25;;;;;;;12.00;5.17;;;15.80;90.80;;;;;;5040201;28;20283;-87
2022/05/21 05:12:54;;;;;;;18.30;6.00;;;15.80;90.80;;;;;;5041445;28;20558;-87
2022/05/21 05:15:21;;;;;;;20.20;6.10;;;15.80;90.80;;;;;;5039902;28;20186;-88
2022/05/21 05:17:47;;;;;;;18.63;5.50;;;15.80;90.70;;;;;;5040180;28;20243;-87
2022/05/21 05:20:14;;;;;;;15.97;4.67;;;15.80;90.70;;;;;;5041962;28;20197;-88
2022/05/21 05:22:41;;;;;;;25.37;6.93;;;15.90;90.60;;;;;;5046492;28;20238;-88
2022/05/21 05:25:11;;;;;;;16.27;5.43;;;15.90;90.60;;;;;;5045191;28;20234;-88
2022/05/21 05:27:38;;;;;;;14.73;4.80;;;15.90;90.70;;;;;;5045464;28;21182;-88
2022/05/21 05:30:08;;;;;;;18.83;4.83;;;15.90;90.60;;;;;;5043420;28;20243;-87
2022/05/21 05:32:35;;;;;;;13.47;5.07;;;15.90;90.60;;;;;;5042407;28;20287;-88
2022/05/21 05:35:04;;;;;;;19.37;5.87;;;16.00;90.60;;;;;;5042090;28;20290;-88
2022/05/21 05:37:31;;;;;;;14.07;5.00;;;16.00;90.80;;;;;;5042499;28;20563;-87
2022/05/21 05:39:58;;;;;;;14.73;4.97;;;16.00;90.60;;;;;;5041700;28;20546;-88
2022/05/21 05:42:25;;;;;;;21.30;5.93;;;16.00;90.60;;;;;;5041797;28;20228;-86
2022/05/21 05:44:52;;;;;;;21.40;6.37;;;16.10;90.70;;;;;;5040278;28;20795;-87
2022/05/21 05:47:21;;;;;;;24.00;7.33;;;16.10;90.90;;;;;;5039487;28;20228;-87
2022/05/21 05:49:49;;;;;;;14.03;5.43;;;16.10;90.90;;;;;;5040054;28;20222;-87
2022/05/21 05:52:16;;;;;;;25.17;6.97;;;16.20;90.70;;;;;;5039690;28;20204;-88
2022/05/21 05:54:44;;;;;;;18.37;5.80;;;16.20;90.80;;;;;;5039801;28;20233;-87
2022/05/21 05:57:11;;;;;;;21.23;7.03;;;16.30;90.70;;;;;;5039503;28;20242;-87
2022/05/21 05:59:50;;;;;;;25.93;6.67;;;16.20;90.60;;;;;;5038997;28;20205;-87
2022/05/21 06:05:09;;;;;;;15.87;5.17;;;16.30;90.50;;;;;;5039538;28;20730;-88
2022/05/21 06:07:42;;;;;;;20.23;5.23;;;16.40;90.60;;;;;;5039763;28;20224;-87
2022/05/21 06:10:11;;;;;;;20.70;6.63;;;16.50;90.50;;;;;;5041728;28;20209;-86
2022/05/21 06:12:39;;;;;;;14.20;4.70;;;16.50;90.20;;;;;;5041471;28;20203;-87
2022/05/21 06:15:06;;;;;;;24.00;7.23;;;16.50;90.20;;;;;;5041894;28;20288;-87
2022/05/21 06:17:34;;;;;;;20.33;6.07;;;16.60;90.20;;;;;;5042386;28;20274;-87
2022/05/21 06:20:01;;;;;;;16.90;5.30;;;16.60;90.10;;;;;;5040860;28;21498;-88
2022/05/21 06:22:30;;;;;;;22.67;5.87;;;16.60;90.00;;;;;;5039943;28;20298;-86
2022/05/21 06:24:57;;;;;;;21.23;6.03;;;16.70;90.20;;;;;;5040928;28;20199;-88
2022/05/21 06:27:27;;;;;;;23.23;5.90;;;16.70;89.80;;;;;;5041897;28;20229;-87
2022/05/21 06:29:57;;;;;;;24.43;8.07;;;16.70;90.30;;;;;;5038670;28;20281;-86
2022/05/21 06:32:24;;;;;;;14.30;4.97;;;16.80;89.70;;;;;;5041048;28;20197;-87
2022/05/21 06:34:51;;;;;;;22.40;5.83;;;16.80;89.80;;;;;;5041687;28;20284;-87
2022/05/21 06:37:18;;;;;;;18.77;6.77;;;16.80;89.80;;;;;;5044537;28;20569;-88
2022/05/21 06:39:49;;;;;;;18.90;5.03;;;16.90;89.70;;;;;;5042344;28;20257;-88
2022/05/21 06:42:16;;;;;;;21.03;6.67;;;16.90;90.10;;;;;;5043325;28;20240;-87
2022/05/21 06:44:43;;;;;;;27.27;9.63;;;16.90;89.40;;;;;;5042664;28;20249;-87
2022/05/21 06:47:11;;;;;;;28.10;8.00;;;17.00;89.40;;;;;;5041994;28;20268;-87
2022/05/21 06:49:38;;;;;;;18.97;6.20;;;17.00;89.20;;;;;;5041957;28;20229;-86
2022/05/21 06:52:05;;;;;;;19.00;6.47;;;17.10;89.20;;;;;;5040952;28;20535;-88
2022/05/21 06:54:32;;;;;;;17.50;6.67;;;17.10;89.00;;;;;;5040489;28;20293;-86
2022/05/21 06:57:01;;;;;;;20.80;6.50;;;17.10;89.00;;;;;;5040117;28;20212;-86
2022/05/21 06:59:28;;;;;;;20.00;8.27;;;17.20;88.90;;;;;;5044365;28;20271;-88
2022/05/21 07:01:55;;;;;;;15.80;6.23;;;17.20;88.50;;;;;;5051948;28;20205;-86
2022/05/21 07:09:52;;;;;;;26.33;7.23;;;17.30;88.00;;;;;;5057612;28;20189;-86
2022/05/21 07:12:21;;;;;;;18.80;6.40;;;17.40;87.70;;;;;;5060472;28;20201;-87
2022/05/21 07:14:48;;;;;;;25.47;8.27;;;17.40;87.70;;;;;;5064940;28;20198;-87
2022/05/21 07:17:17;;;;;;;15.83;6.30;;;17.50;88.20;;;;;;5064074;28;20210;-85
2022/05/21 07:19:44;;;;;;;19.30;6.40;;;17.50;87.80;;;;;;5050048;28;20740;-86
2022/05/21 07:22:13;;;;;;;16.13;6.23;;;17.50;87.80;;;;;;5051199;28;20196;-88
2022/05/21 07:24:42;;;;;;;19.80;7.00;;;17.60;87.00;;;;;;5050580;28;20191;-87
2022/05/21 07:27:09;;;;;;;17.13;6.30;;;17.60;86.70;;;;;;5045430;28;20276;-88
2022/05/21 07:29:38;;;;;;;19.20;7.43;;;17.70;86.50;;;;;;5043081;28;20663;-86
2022/05/21 07:32:05;;;;;;;20.60;6.80;;;17.70;86.30;;;;;;5043695;28;20204;-89
2022/05/21 07:34:33;;;;;;;22.30;6.27;;;17.80;86.60;;;;;;5048227;28;20261;-87
2022/05/21 07:37:02;;;;;;;19.27;5.73;;;17.80;85.60;;;;;;5044534;28;20284;-91
2022/05/21 07:39:32;;;;;;;16.23;6.07;;;17.90;85.70;;;;;;5045260;28;20206;-88
2022/05/21 07:41:59;;;;;;;20.73;5.40;;;17.90;85.70;;;;;;5046462;28;20279;-88
2022/05/21 07:44:26;;;;;;;21.27;5.80;;;18.00;85.70;;;;;;5043642;28;20289;-88
2022/05/21 07:46:54;;;;;;;18.67;5.23;;;18.00;85.70;;;;;;5042753;28;20207;-90
2022/05/21 07:49:24;;;;;;;16.23;4.80;;;18.10;84.40;;;;;;5047201;28;20250;-88
2022/05/21 07:51:51;;;;;;;15.23;5.50;;;18.20;83.20;;;;;;5049696;28;20191;-88
2022/05/21 07:54:21;;;;;;;12.80;4.07;;;18.20;84.40;;;;;;5042061;28;20311;-88
2022/05/21 07:56:48;;;;;;;11.77;3.77;;;18.30;83.80;;;;;;5057878;28;20203;-89
2022/05/21 07:59:16;;;;;;;14.67;4.03;;;18.40;82.30;;;;;;5046682;28;20200;-92
2022/05/21 08:01:44;;;;;;;11.87;4.00;;;18.40;81.50;;;;;;5043429;28;20216;-89
2022/05/21 08:04:12;;;;;;;13.93;4.03;;;18.50;80.80;;;;;;5047019;28;20231;-96
2022/05/21 08:06:39;;;;;;;11.53;3.60;;;18.60;79.60;;;;;;5049148;28;20192;-89
2022/05/21 08:09:06;;;;;;;14.67;5.17;;;18.60;78.80;;;;;;5042499;28;20622;-88
2022/05/21 08:11:34;;;;;;;13.03;3.60;;;18.70;79.30;;;;;;5043041;28;20316;-88
2022/05/21 08:14:01;;;;;;;14.93;4.07;;;18.70;77.90;;;;;;5041215;28;20199;-89
2022/05/21 08:16:29;;;;;;;14.67;4.47;;;18.80;77.70;;;;;;5042521;28;20214;-89
2022/05/21 08:19:02;;;;;;;9.30;3.27;;;18.80;77.80;;;;;;5044774;28;20251;-89
2022/05/21 08:21:33;;;;;;;10.67;3.87;;;18.90;76.80;;;;;;5053969;28;20276;-87
2022/05/21 08:26:57;;;;;;;10.30;3.60;;;19.00;77.70;;;;;;5041005;28;20200;-87
2022/05/21 08:29:24;;;;;;;11.13;3.43;;;19.00;77.10;;;;;;5047553;28;20244;-93
2022/05/21 08:31:51;;;;;;;13.53;4.20;;;19.10;75.10;;;;;;5041998;28;20199;-86
2022/05/21 08:34:18;;;;;;;12.20;4.93;;;19.20;76.50;;;;;;5043017;28;20227;-86
2022/05/21 08:36:47;;;;;;;10.23;3.43;;;19.20;75.30;;;;;;5054519;28;20231;-87
2022/05/21 08:39:14;;;;;;;10.73;3.43;;;19.30;75.00;;;;;;5052327;28;20211;-87
2022/05/21 08:41:46;;;;;;;12.00;4.00;;;19.30;74.30;;;;;;5053515;28;20294;-86
2022/05/21 08:44:19;;;;;;;13.27;4.70;;;19.40;73.50;;;;;;5052282;28;20263;-88
2022/05/21 08:47:01;;;;;;;15.10;3.90;;;19.40;73.10;;;;;;5052904;28;20205;-87
2022/05/21 08:49:33;;;;;;;20.13;5.47;;;19.50;73.30;;;;;;5050430;28;20263;-86
2022/05/21 08:52:07;;;;;;;11.97;4.10;;;19.50;73.30;;;;;;5049220;28;20294;-86
2022/05/21 08:54:39;;;;;;;12.17;3.73;;;19.60;72.60;;;;;;5053635;28;20225;-88
2022/05/21 08:57:12;;;;;;;11.10;3.77;;;19.60;72.50;;;;;;5050092;28;20644;-88
2022/05/21 08:59:44;;;;;;;12.93;4.63;;;19.70;72.30;;;;;;5035291;28;20279;-87
2022/05/21 09:02:16;;;;;;;14.83;4.30;;;19.70;72.50;;;;;;5052218;28;20612;-86
2022/05/21 09:04:43;;;;;;;11.57;4.17;;;19.80;72.30;;;;;;5048329;28;20286;-89
2022/05/21 09:07:19;;;;;;;13.67;4.77;;;19.90;72.70;;;;;;5053282;28;20295;-87
2022/05/21 09:09:58;;;;;;;10.17;3.10;;;19.90;72.10;;;;;;5051674;28;20239;-87
2022/05/21 09:12:40;;;;;;;13.13;4.30;;;20.00;71.90;;;;;;5051950;28;20581;-87
2022/05/21 09:15:10;;;;;;;16.73;5.17;;;20.10;70.70;;;;;;5051088;28;20211;-87
2022/05/21 09:17:42;;;;;;;10.83;4.03;;;20.20;69.40;;;;;;5052195;28;20215;-87
2022/05/21 09:20:18;;;;;;;13.73;3.43;;;20.30;69.30;;;;;;5045191;28;20956;-88
2022/05/21 09:22:58;;;;;;;14.80;4.03;;;20.30;68.60;;;;;;5047928;28;20206;-87
2022/05/21 09:25:26;;;;;;;15.53;4.57;;;20.40;67.70;;;;;;5051778;28;20305;-87
2022/05/21 09:28:04;;;;;;;12.77;3.67;;;20.50;70.10;;;;;;5051888;28;20228;-88
2022/05/21 09:30:35;;;;;;;13.50;3.93;;;20.60;68.90;;;;;;5052346;28;20291;-87
2022/05/21 09:33:20;;;;;;;9.80;3.47;;;20.70;69.10;;;;;;5051470;28;20257;-87
2022/05/21 09:35:53;;;;;;;13.00;3.90;;;20.70;67.00;;;;;;5052895;28;20211;-86
2022/05/21 09:38:25;;;;;;;11.80;4.27;;;20.90;66.70;;;;;;5049814;28;20202;-88
2022/05/21 09:41:06;;;;;;;11.40;3.37;;;21.00;66.90;;;;;;5052327;28;20716;-88
2022/05/21 09:46:23;;;;;;;17.67;6.57;;;21.20;66.10;;;;;;5050887;28;20199;-87
2022/05/21 09:48:52;;;;;;;11.47;4.27;;;21.40;67.20;;;;;;5045227;28;20311;-87
2022/05/21 09:51:29;;;;;;;11.90;3.93;;;21.50;67.10;;;;;;5050091;28;21018;-90
2022/05/21 09:53:58;;;;;;;12.70;3.93;;;21.60;65.10;;;;;;5052804;28;20603;-89
2022/05/21 09:56:27;;;;;;;13.73;4.20;;;21.80;66.60;;;;;;5051435;28;20201;-88
2022/05/21 09:59:11;;;;;;;9.63;3.23;;;21.90;64.70;;;;;;5051729;28;20264;-91
2022/05/21 10:01:40;;;;;;;11.80;4.37;;;22.00;63.40;;;;;;5049380;28;20268;-88
2022/05/21 10:04:15;;;;;;;10.33;3.67;;;22.10;64.40;;;;;;5053077;28;20198;-88
2022/05/21 10:06:46;;;;;;;9.87;3.27;;;22.30;61.70;;;;;;5050680;28;20207;-88
2022/05/21 10:12:10;;;;;;;11.50;4.43;;;22.50;61.20;;;;;;5052265;28;20204;-90
2022/05/21 10:14:44;;;;;;;11.13;4.23;;;22.60;61.80;;;;;;5052437;28;20213;-92
2022/05/21 10:17:19;;;;;;;17.20;4.77;;;22.70;62.10;;;;;;5047787;28;20644;-89
2022/05/21 10:19:54;;;;;;;11.83;4.23;;;22.80;62.10;;;;;;5050720;28;20644;-89
2022/05/21 10:22:32;;;;;;;13.37;4.60;;;22.90;62.30;;;;;;5051475;28;20193;-89
2022/05/21 10:25:08;;;;;;;12.83;3.77;;;23.00;62.10;;;;;;5046298;28;20194;-90
2022/05/21 10:27:56;;;;;;;13.20;3.70;;;23.10;60.10;;;;;;5045061;28;20327;-90
2022/05/21 10:30:32;;;;;;;7.67;2.90;;;23.20;58.70;;;;;;5050961;28;20287;-92
2022/05/21 10:33:16;;;;;;;9.20;3.50;;;23.30;59.10;;;;;;5049598;28;20234;-91
2022/05/21 10:36:04;;;;;;;13.90;4.23;;;23.40;58.80;;;;;;5047245;28;20204;-90
2022/05/21 10:38:55;;;;;;;10.47;3.87;;;23.50;56.70;;;;;;5049777;28;20193;-90
2022/05/21 10:41:37;;;;;;;15.70;5.60;;;23.60;57.40;;;;;;5048384;28;20246;-88
2022/05/21 10:44:28;;;;;;;12.90;3.90;;;23.70;57.50;;;;;;5050801;28;20212;-91
2022/05/21 10:47:04;;;;;;;9.73;4.10;;;23.70;57.50;;;;;;5048024;28;20249;-90
2022/05/21 10:50:05;;;;;;;12.80;4.93;;;23.80;56.80;;;;;;5050372;28;20250;-93
2022/05/21 10:52:45;;;;;;;14.93;5.20;;;23.80;58.00;;;;;;5030424;28;20287;-91
2022/05/21 10:55:18;;;;;;;12.77;5.27;;;23.90;57.70;;;;;;5042569;28;20280;-91
2022/05/21 10:58:16;;;;;;;8.97;4.33;;;24.00;58.60;;;;;;5048828;28;20656;-90
2022/05/21 11:00:52;;;;;;;8.33;3.77;;;24.10;56.70;;;;;;5045895;28;20277;-91
2022/05/21 11:03:50;;;;;;;8.73;3.90;;;24.20;57.70;;;;;;5050572;28;20204;-94
2022/05/21 11:06:43;;;;;;;9.77;3.80;;;24.30;57.00;;;;;;5051051;28;20658;-93
2022/05/21 11:09:19;;;;;;;12.57;4.17;;;24.40;56.10;;;;;;5051110;28;20228;-91
2022/05/21 11:11:58;;;;;;;11.37;4.23;;;24.40;55.50;;;;;;5049042;28;20208;-90
2022/05/21 11:14:45;;;;;;;8.67;3.50;;;24.50;54.80;;;;;;5050427;28;20204;-89
2022/05/21 11:17:25;;;;;;;12.97;5.37;;;24.50;54.30;;;;;;5046811;28;20627;-90
2022/05/21 11:20:02;;;;;;;15.57;5.93;;;24.50;54.30;;;;;;5040783;28;20296;-91
2022/05/21 11:22:39;;;;;;;9.60;3.57;;;24.50;55.20;;;;;;5033829;28;20322;-90
2022/05/21 11:25:15;;;;;;;10.80;4.13;;;24.50;54.30;;;;;;5033261;28;20649;-91
2022/05/21 11:27:58;;;;;;;9.90;3.57;;;24.50;55.10;;;;;;5032443;28;20204;-90
2022/05/21 11:30:28;;;;;;;10.20;3.33;;;24.60;54.40;;;;;;5031118;28;20204;-91
2022/05/21 11:38:38;;;;;;;11.13;3.67;;;24.70;55.10;;;;;;5050604;28;20695;-93
2022/05/21 11:46:56;;;;;;;9.20;4.03;;;24.90;53.80;;;;;;5036693;28;20246;-91
2022/05/21 11:49:34;;;;;;;11.07;3.60;;;25.00;53.60;;;;;;5034782;28;20320;-93
2022/05/21 11:52:39;;;;;;;9.63;3.50;;;25.00;52.50;;;;;;5034526;28;20208;-91
2022/05/21 11:55:24;;;;;;;10.97;4.17;;;25.00;52.70;;;;;;5035146;28;20240;-91
2022/05/21 11:57:56;;;;;;;9.47;3.53;;;25.00;52.90;;;;;;5044571;28;20558;-91
2022/05/21 12:00:49;;;;;;;7.40;3.23;;;25.10;53.50;;;;;;5053960;28;20279;-91
2022/05/21 12:03:21;;;;;;;7.87;3.47;;;25.10;53.40;;;;;;5053884;28;20207;-91
2022/05/21 12:05:58;;;;;;;8.53;4.03;;;25.20;53.80;;;;;;5053295;28;20601;-91
2022/05/21 12:08:39;;;;;;;8.27;3.60;;;25.20;53.10;;;;;;5053060;28;20752;-90
2022/05/21 12:11:10;;;;;;;8.50;3.27;;;25.30;52.00;;;;;;5053439;28;20200;-93
2022/05/21 12:14:02;;;;;;;12.23;4.53;;;25.30;52.70;;;;;;5052409;28;20262;-90
2022/05/21 12:16:46;;;;;;;9.27;3.43;;;25.40;52.40;;;;;;5052770;28;20659;-91
2022/05/21 12:20:07;;;;;;;9.73;4.17;;;25.40;52.30;;;;;;5053193;28;20247;-91
2022/05/21 12:22:41;;;;;;;11.43;3.70;;;25.40;51.70;;;;;;5051494;28;20204;-92
2022/05/21 12:25:13;;;;;;;13.50;5.37;;;25.50;53.10;;;;;;5047246;28;20201;-94
2022/05/21 12:27:56;;;;;;;10.03;4.07;;;25.60;52.80;;;;;;5051458;28;20206;-88
2022/05/21 12:30:29;;;;;;;10.67;3.53;;;25.60;53.00;;;;;;5053654;28;20274;-91
2022/05/21 12:32:56;;;;;;;7.83;3.93;;;25.60;52.80;;;;;;5053336;28;20228;-93
2022/05/21 12:35:43;;;;;;;12.10;4.87;;;25.70;52.70;;;;;;5053100;28;20910;-93
2022/05/21 12:38:27;;;;;;;8.50;4.03;;;25.80;51.80;;;;;;5053505;28;20195;-91
2022/05/21 12:41:04;;;;;;;7.50;3.60;;;26.00;51.80;;;;;;5052567;28;20205;-89
2022/05/21 12:43:44;;;;;;;9.77;4.30;;;26.00;51.60;;;;;;5052441;28;20242;-92
2022/05/21 12:46:24;;;;;;;8.03;4.00;;;26.10;51.40;;;;;;5053886;28;20204;-92
2022/05/21 12:48:52;;;;;;;8.83;4.07;;;26.30;50.60;;;;;;5054732;28;20231;-92
2022/05/21 12:51:34;;;;;;;10.67;4.63;;;26.30;51.50;;;;;;5052373;28;20750;-92
2022/05/21 12:54:07;;;;;;;9.73;3.90;;;26.40;50.20;;;;;;5053244;28;20758;-90
2022/05/21 12:56:37;;;;;;;8.40;4.03;;;26.40;51.90;;;;;;5053321;28;21070;-90
2022/05/21 12:59:08;;;;;;;11.47;5.70;;;26.50;50.90;;;;;;5050666;28;20922;-90
2022/05/21 13:01:43;;;;;;;6.07;3.73;;;26.60;50.80;;;;;;5052631;28;20309;-90
2022/05/21 13:04:23;;;;;;;9.20;4.10;;;26.60;51.30;;;;;;5052429;28;20204;-94
2022/05/21 13:06:56;;;;;;;8.83;3.73;;;26.70;49.50;;;;;;5053050;28;20643;-90
2022/05/21 13:09:25;;;;;;;8.80;3.57;;;26.70;50.00;;;;;;5052620;28;20227;-92
2022/05/21 13:11:52;;;;;;;11.10;4.73;;;26.80;50.40;;;;;;5052611;28;20291;-90
2022/05/21 13:14:29;;;;;;;9.13;4.10;;;26.80;50.80;;;;;;5052271;28;20234;-91
2022/05/21 13:16:58;;;;;;;9.07;3.53;;;26.80;49.80;;;;;;5054054;28;20212;-92
2022/05/21 13:20:00;;;;;;;7.00;3.57;;;26.80;50.50;;;;;;5052935;28;20208;-92
2022/05/21 13:22:54;;;;;;;9.03;4.07;;;26.90;49.40;;;;;;5050779;28;20197;-90
2022/05/21 13:25:23;;;;;;;11.97;4.33;;;26.80;48.30;;;;;;5052250;28;20296;-91
2022/05/21 13:27:54;;;;;;;8.17;3.40;;;26.80;49.80;;;;;;5051863;28;20211;-91
2022/05/21 13:30:24;;;;;;;11.67;4.80;;;26.80;49.80;;;;;;5034897;28;20701;-92
2022/05/21 13:32:55;;;;;;;9.60;4.37;;;26.80;49.80;;;;;;5050890;28;20221;-90
2022/05/21 13:35:28;;;;;;;8.97;3.83;;;26.80;50.20;;;;;;5051179;28;20215;-92
2022/05/21 13:37:55;;;;;;;8.63;3.73;;;26.80;50.20;;;;;;5051568;28;20307;-90
2022/05/21 13:40:27;;;;;;;8.67;3.87;;;26.90;49.80;;;;;;5051259;28;20285;-91
2022/05/21 13:42:57;;;;;;;10.73;4.70;;;26.90;49.70;;;;;;5051225;28;20212;-89